createdAt,value
2018-08-24T00:00:06.318Z,30.30
2018-08-24T00:05:13.176Z,26.07
2018-08-24T00:10:19.287Z,30.80
2018-08-24T00:15:23.906Z,29.90
2018-08-24T00:20:27.957Z,31.80
2018-08-24T00:25:32.238Z,24.93
2018-08-24T00:30:38.415Z,31.13
2018-08-24T00:35:43.448Z,24.77
2018-08-24T00:40:51.647Z,26.67
2018-08-24T00:45:56.050Z,21.20
2018-08-24T00:51:00.302Z,22.80
2018-08-24T00:56:05.670Z,22.80
2018-08-24T01:01:12.330Z,19.50
2018-08-24T01:06:25.002Z,19.83
2018-08-24T01:11:35.244Z,17.90
2018-08-24T01:16:45.468Z,18.87
2018-08-24T01:21:50.869Z,17.97
2018-08-24T01:27:01.500Z,17.77
2018-08-24T01:32:07.084Z,17.90
2018-08-24T01:37:13.507Z,15.57
2018-08-24T01:42:18.417Z,13.60
2018-08-24T01:47:23.480Z,11.70
2018-08-24T01:52:27.422Z,13.70
2018-08-24T01:57:35.545Z,6.97
2018-08-24T02:02:43.249Z,5.33
2018-08-24T02:07:53.252Z,6.50
2018-08-24T02:13:06.460Z,2.03
2018-08-24T02:18:21.632Z,1.93
2018-08-24T02:23:32.312Z,1.97
2018-08-24T02:28:39.644Z,1.60
2018-08-24T02:33:45.246Z,1.67
2018-08-24T02:38:51.868Z,1.97
2018-08-24T02:43:56.023Z,2.27
2018-08-24T02:49:00.098Z,0.87
2018-08-24T02:54:04.440Z,2.30
2018-08-24T02:59:10.228Z,3.23
2018-08-24T03:04:16.195Z,2.70
2018-08-24T03:09:22.810Z,1.50
2018-08-24T03:14:28.653Z,1.90
2018-08-24T03:19:34.493Z,1.00
2018-08-24T03:24:38.792Z,2.30
2018-08-24T03:29:43.297Z,1.77
2018-08-24T03:34:47.208Z,3.13
2018-08-24T03:39:52.161Z,1.53
2018-08-24T03:44:56.543Z,1.27
2018-08-24T03:50:02.748Z,1.20
2018-08-24T03:55:07.439Z,1.57
2018-08-24T04:00:16.228Z,0.70
2018-08-24T04:05:20.456Z,1.87
2018-08-24T04:10:25.300Z,2.73
2018-08-24T04:15:30.104Z,2.20
2018-08-24T04:20:36.393Z,1.17
2018-08-24T04:25:42.875Z,3.13
2018-08-24T04:30:47.939Z,2.50
2018-08-24T04:35:53.116Z,3.70
2018-08-24T04:40:58.289Z,2.43
2018-08-24T04:46:03.566Z,1.93
2018-08-24T04:51:08.645Z,10.33
2018-08-24T04:56:12.995Z,2.13
2018-08-24T05:01:17.603Z,3.37
2018-08-24T05:06:21.863Z,5.63
2018-08-24T05:11:26.981Z,4.20
2018-08-24T05:16:31.419Z,1.80
2018-08-24T05:21:35.974Z,3.30
2018-08-24T05:26:40.525Z,1.73
2018-08-24T05:31:45.211Z,3.10
2018-08-24T05:36:49.533Z,2.53
2018-08-24T05:41:53.867Z,16.53
2018-08-24T05:46:58.475Z,1.53
2018-08-24T05:52:03.597Z,7.80
2018-08-24T05:57:07.913Z,12.30
2018-08-24T06:02:12.927Z,5.70
2018-08-24T06:07:17.569Z,6.23
2018-08-24T06:12:22.110Z,1.30
2018-08-24T06:17:31.788Z,5.97
2018-08-24T06:22:36.139Z,4.20
2018-08-24T06:27:40.180Z,1.73
2018-08-24T06:32:44.170Z,3.03
2018-08-24T06:37:48.221Z,5.63
2018-08-24T06:42:53.886Z,6.00
2018-08-24T06:47:59.374Z,6.53
2018-08-24T06:53:04.575Z,3.03
2018-08-24T06:58:09.383Z,6.37
2018-08-24T07:03:13.864Z,7.97
2018-08-24T07:08:18.057Z,4.80
2018-08-24T07:13:23.476Z,6.03
2018-08-24T07:18:32.645Z,10.43
2018-08-24T07:23:37.728Z,8.00
2018-08-24T07:28:41.681Z,4.83
2018-08-24T07:33:44.063Z,6.50
2018-08-24T07:38:47.987Z,5.27
2018-08-24T07:43:52.658Z,14.63
2018-08-24T07:48:58.508Z,8.10
2018-08-24T07:54:04.601Z,7.93
2018-08-24T07:59:10.455Z,9.80
2018-08-24T08:04:16.571Z,9.87
2018-08-24T08:11:46.835Z,8.43
2018-08-24T08:16:53.638Z,8.70
2018-08-24T08:21:59.063Z,4.43
2018-08-24T08:27:04.199Z,10.47
2018-08-24T08:32:09.682Z,6.73
2018-08-24T08:37:15.994Z,8.47
2018-08-24T08:42:22.096Z,5.77
2018-08-24T08:47:28.480Z,10.70
2018-08-24T08:52:34.673Z,5.73
2018-08-24T08:57:40.348Z,5.40
2018-08-24T09:02:45.471Z,6.83
2018-08-24T09:07:47.962Z,6.60
2018-08-24T09:12:51.345Z,3.47
2018-08-24T09:18:00.468Z,8.30
2018-08-24T09:25:13.338Z,5.97
2018-08-24T09:30:17.271Z,4.87
2018-08-24T09:35:21.105Z,9.20
2018-08-24T09:40:31.295Z,7.47
2018-08-24T09:45:35.817Z,6.33
2018-08-24T09:50:45.324Z,6.10
2018-08-24T09:55:48.966Z,5.13
2018-08-24T10:00:58.454Z,7.30
2018-08-24T10:06:07.785Z,6.13
2018-08-24T10:11:12.074Z,6.73
2018-08-24T10:16:16.689Z,5.27
2018-08-24T10:21:20.913Z,8.43
2018-08-24T10:26:25.290Z,4.77
2018-08-24T10:31:29.479Z,5.07
2018-08-24T10:36:34.177Z,9.00
2018-08-24T10:41:39.237Z,1.80
2018-08-24T10:46:44.219Z,1.40
2018-08-24T10:54:16.635Z,2.30
2018-08-24T10:59:21.850Z,2.40
2018-08-24T11:04:26.901Z,3.60
2018-08-24T11:09:32.333Z,3.50
2018-08-24T11:14:37.789Z,2.77
2018-08-24T11:19:42.929Z,4.20
2018-08-24T11:24:48.418Z,2.93
2018-08-24T11:29:58.078Z,5.13
2018-08-24T11:35:04.067Z,4.00
2018-08-24T11:40:10.138Z,3.80
2018-08-24T11:45:15.401Z,4.93
2018-08-24T11:50:20.564Z,3.37
2018-08-24T11:55:24.631Z,5.77
2018-08-24T12:00:33.673Z,5.50
2018-08-24T12:05:36.029Z,14.83
2018-08-24T12:10:39.900Z,7.00
2018-08-24T12:15:42.743Z,6.80
2018-08-24T12:20:47.857Z,7.00
2018-08-24T12:25:52.848Z,5.83
2018-08-24T12:30:57.469Z,3.73
2018-08-24T12:35:59.908Z,3.83
2018-08-24T12:41:02.296Z,5.23
2018-08-24T12:46:05.449Z,3.63
2018-08-24T12:51:09.527Z,4.60
2018-08-24T12:56:19.902Z,22.17
2018-08-24T13:01:22.609Z,17.53
2018-08-24T13:06:24.833Z,5.27
2018-08-24T13:11:27.033Z,6.10
2018-08-24T13:16:30.827Z,7.13
2018-08-24T13:21:35.922Z,5.27
2018-08-24T13:26:41.632Z,6.50
2018-08-24T13:31:48.180Z,4.30
2018-08-24T13:36:53.006Z,3.70
2018-08-24T13:41:57.184Z,14.00
2018-08-24T13:47:01.276Z,5.40
2018-08-24T13:52:05.257Z,3.40
2018-08-24T13:57:10.432Z,11.03
2018-08-24T14:02:15.337Z,9.33
2018-08-24T14:07:20.590Z,3.93
2018-08-24T14:12:26.128Z,3.23
2018-08-24T14:17:31.456Z,2.37
2018-08-24T14:22:38.167Z,4.30
2018-08-24T14:27:43.618Z,4.30
2018-08-24T14:32:48.806Z,2.80
2018-08-24T14:37:54.351Z,3.40
2018-08-24T14:42:59.714Z,5.93
2018-08-24T14:48:03.788Z,2.93
2018-08-24T14:53:08.190Z,5.60
2018-08-24T14:58:12.925Z,5.87
2018-08-24T15:03:17.836Z,8.30
2018-08-24T15:08:22.839Z,9.07
2018-08-24T15:13:28.492Z,10.00
2018-08-24T15:18:33.681Z,6.03
2018-08-24T15:23:38.626Z,8.03
2018-08-24T15:28:44.452Z,4.00
2018-08-24T15:33:49.571Z,3.53
2018-08-24T15:38:55.937Z,5.13
2018-08-24T15:44:00.889Z,8.63
2018-08-24T15:49:05.591Z,7.83
2018-08-24T15:54:09.366Z,4.90
2018-08-24T15:59:14.062Z,6.40
2018-08-24T16:04:19.389Z,2.63
2018-08-24T16:09:24.720Z,4.30
2018-08-24T16:14:29.748Z,9.87
2018-08-24T16:19:33.547Z,8.07
2018-08-24T16:24:38.082Z,4.57
2018-08-24T16:29:42.559Z,6.43
2018-08-24T16:34:47.594Z,2.83
2018-08-24T16:39:52.482Z,4.77
2018-08-24T16:44:58.216Z,3.97
2018-08-24T16:50:03.495Z,10.63
2018-08-24T16:55:08.711Z,5.73
2018-08-24T17:00:13.680Z,5.07
2018-08-24T17:05:18.264Z,6.93
2018-08-24T17:10:24.455Z,4.33
2018-08-24T17:15:30.853Z,7.40
2018-08-24T17:20:38.203Z,11.70
2018-08-24T17:25:45.216Z,7.67
2018-08-24T17:30:52.574Z,14.20
2018-08-24T17:35:59.944Z,6.00
2018-08-24T17:41:07.105Z,8.07
2018-08-24T17:46:14.705Z,7.43
2018-08-24T17:51:22.552Z,6.70
2018-08-24T17:56:28.034Z,8.20
2018-08-24T18:01:33.694Z,6.00
2018-08-24T18:06:39.481Z,9.33
2018-08-24T18:11:45.402Z,6.10
2018-08-24T18:16:52.172Z,4.63
2018-08-24T18:21:58.091Z,10.43
2018-08-24T18:27:04.362Z,2.70
2018-08-24T18:32:11.230Z,3.53
2018-08-24T18:37:17.747Z,1.67
2018-08-24T18:42:23.240Z,2.63
2018-08-24T18:47:28.841Z,2.03
2018-08-24T18:52:34.528Z,3.43
2018-08-24T18:57:43.345Z,3.53
2018-08-24T19:02:50.994Z,4.40
2018-08-24T19:08:04.590Z,2.30
2018-08-24T19:13:18.394Z,1.90
2018-08-24T19:23:47.934Z,2.93
2018-08-24T19:28:59.276Z,3.10
2018-08-24T19:34:05.998Z,2.97
2018-08-24T19:39:15.214Z,2.40
2018-08-24T19:44:20.274Z,2.37
2018-08-24T19:49:24.680Z,5.90
2018-08-24T19:54:31.336Z,7.90
2018-08-24T19:59:39.554Z,2.20
2018-08-24T20:04:50.171Z,2.70
2018-08-24T20:10:09.005Z,5.93
2018-08-24T20:15:21.903Z,3.47
2018-08-24T20:20:29.262Z,4.67
2018-08-24T20:25:37.525Z,1.93
2018-08-24T20:30:43.177Z,3.17
2018-08-24T20:35:48.091Z,2.30
2018-08-24T20:40:53.100Z,2.60
2018-08-24T20:45:59.105Z,4.50
2018-08-24T20:51:05.308Z,3.00
2018-08-24T20:56:11.353Z,4.70
2018-08-24T21:01:17.459Z,2.87
2018-08-24T21:06:23.440Z,9.80
2018-08-24T21:11:35.148Z,3.30
2018-08-24T21:16:44.981Z,3.53
2018-08-24T21:21:56.066Z,5.23
2018-08-24T21:27:10.056Z,3.40
2018-08-24T21:32:20.793Z,6.57
2018-08-24T21:37:27.112Z,3.40
2018-08-24T21:42:32.406Z,6.30
2018-08-24T21:47:37.668Z,3.73
2018-08-24T21:52:46.318Z,6.00
2018-08-24T22:00:21.884Z,4.00
2018-08-24T22:05:29.185Z,6.60
2018-08-24T22:10:37.202Z,7.23
2018-08-24T22:15:45.177Z,6.57
2018-08-24T22:20:54.288Z,5.13
2018-08-24T22:26:05.915Z,4.50
2018-08-24T22:31:17.658Z,3.37
2018-08-24T22:36:26.474Z,8.90
2018-08-24T22:41:40.332Z,2.30
2018-08-24T22:46:53.719Z,3.90
2018-08-24T22:52:01.115Z,4.33
2018-08-24T22:57:07.851Z,4.10
2018-08-24T23:02:14.571Z,2.73
2018-08-24T23:07:22.085Z,1.90
2018-08-24T23:12:28.844Z,6.93
2018-08-24T23:17:36.201Z,5.57
2018-08-24T23:22:41.283Z,3.30
2018-08-24T23:27:44.746Z,2.83
2018-08-24T23:32:48.492Z,8.60
2018-08-24T23:37:53.502Z,6.93
2018-08-24T23:42:59.706Z,8.50
2018-08-24T23:48:08.194Z,6.10
2018-08-24T23:53:14.970Z,2.40
2018-08-24T23:58:21.674Z,5.90
